Vindmåler ude af drift - anemometer is down due to maintenance


Webcam more information My webcam


Lyn radar more information blitzortung!


Regn radar more information rain snow radar


Du finder også vores vejrinformationer på:

UK Metoffice

European Weather Network

WeatherCloud

Weather Underground

AWEKAS

Citizen Weather Observer Program (CWOP)



No particular awareness of the weather is required.    There are no Weather-warnings

Lokal METAR Rapport

   
EBAW - Antwerp
Opdateret: 19-09-2019 12:50
Delvis skyet  
Delvis skyet  
   Vind: NØ 3.1 m/s
Vind: NØ 3.1 m/s
Temperatur: 16°C
Dugpunkt: 7°C
Luftfugtighed: 55%
Barometer: 1031 hPa
Skyet: Partly Cloudy
Sigtbarhed: mere end 10 km
Sky detaljer: Delvis skyet 3500 ft
EBAW 191050Z 05006KT 020V080 9999 SCT035 16/07 Q1031 NOSIG
EBLG - Liège
Opdateret: 19-09-2019 12:50
Let Skyet  
Let Skyet  
   Vind: ØNØ 3.6 m/s
Vind: ØNØ 3.6 m/s
Temperatur: 15°C
Dugpunkt: 4°C
Luftfugtighed: 48%
Barometer: 1031 hPa
Skyet: Few Clouds
Sigtbarhed: mere end 10 km
Sky detaljer: Let Skyet 3600 ft
EBLG 191050Z 06007KT 010V100 9999 FEW036 15/04 Q1031 NOSIG
EBCV - Mons/Bergen
Opdateret: 19-09-2019 12:55
Let Skyet  
Let Skyet  
   Vind: ØNØ 4.6 m/s
Vind: ØNØ 4.6 m/s
Temperatur: 16°C
Dugpunkt: 6°C
Luftfugtighed: 52%
Barometer: 1031 hPa
Skyet: Few Clouds
Sigtbarhed: mere end 10 km
Sky detaljer: Let Skyet 3700 ft
EBCV 191055Z AUTO 06009KT 9999 FEW037/// 16/06 Q1031 BLU
EHBK - Maastricht
Opdateret: 19-09-2019 12:55
Delvis skyet  
Delvis skyet  
   Vind: ØNØ 4.6 m/s
Vind: ØNØ 4.6 m/s
Temperatur: 16°C
Dugpunkt: 5°C
Luftfugtighed: 48%
Barometer: 1031 hPa
Skyet: Partly Cloudy
Sigtbarhed: mere end 10 km
Sky detaljer: Delvis skyet 3700 ft
EHBK 191055Z AUTO 07009KT 040V120 9999 SCT037 16/05 Q1031 NOSIG
ELLX - Luxemburg
Opdateret: 19-09-2019 12:50
Klart  
Klart  
   Vind: øst 5.7 m/s
Vind: øst 5.7 m/s
Temperatur: 14°C
Dugpunkt: 1°C
Luftfugtighed: 41%
Barometer: 1029 hPa
Sigtbarhed: mere end 10 km
Sky detaljer: Klart ft
ELLX 191050Z 08011KT 050V120 CAVOK 14/01 Q1029 NOSIG
EBOS - Oostende
Opdateret: 19-09-2019 12:50
mest skyet  
mest skyet  
   Vind: Nord 3.6 m/s
Vind: Nord 3.6 m/s
Temperatur: 16°C
Dugpunkt: 9°C
Luftfugtighed: 63%
Barometer: 1032 hPa
Skyet: Mostly Cloudy
Sigtbarhed: mere end 10 km
Sky detaljer: Let Skyet 3400 ft,
mest skyet 4800 ft
EBOS 191050Z 01007KT 9999 FEW034 BKN048 16/09 Q1032 NOSIG

Script udviklet af  Saratoga-weather.org Tilpasset til denne template af  Weerstation Leuven

Udstyr som vi anvender:

Vejrstation
Davis VP2

Vejrprogram
Meteobridge

Vejrserver
Meteobridge Pro

Hjemmeside host
Unoeuro

Davis VP2

Meteobridge

Meteobridge Pro

Unoeuro